FFT364 MMSD-KATL
Flight info
| Callsign | FFT364 |
|---|---|
| Flight time | N/A |
| Altitude | 33000 |
| Route | UKUXA1B USBOG UKUXA NAPDA TRC UJ20 NLD LRD PSX VUH LCH MERDN ORRKK GNDLF3 |
| Aircraft | A321/M-VGDW/C |
Departure
| Time | 2026-05-01 14:28 |
|---|---|
| Airport | Los Cabos International Airport (MMSD) |
Arrival
| Time | N/A |
|---|---|
| Airport | Hartsfield Jackson Atlanta International Airport (KATL) |
| Time | Latitude | Longitude | Altitude | Speed | Heading |
|---|---|---|---|---|---|
| 2026-05-01 13:51 | 23.15681 | -109.71779 | 370 ft | 0 kts | 81° |
| 2026-05-01 14:18 | 23.15679 | -109.71791 | 370 ft | 4 kts | 86° |
| 2026-05-01 14:18 | 23.15680 | -109.71810 | 370 ft | 4 kts | 102° |
| 2026-05-01 14:19 | 23.15696 | -109.71839 | 372 ft | 4 kts | 162° |
| 2026-05-01 14:19 | 23.15708 | -109.71842 | 371 ft | 1 kts | 173° |
| 2026-05-01 14:22 | 23.15699 | -109.71841 | 370 ft | 5 kts | 173° |
| 2026-05-01 14:22 | 23.15651 | -109.71837 | 369 ft | 8 kts | 181° |
| 2026-05-01 14:22 | 23.15611 | -109.71865 | 369 ft | 6 kts | 244° |
| 2026-05-01 14:22 | 23.15589 | -109.71901 | 369 ft | 7 kts | 214° |
| 2026-05-01 14:23 | 23.15527 | -109.71905 | 370 ft | 11 kts | 174° |
| 2026-05-01 14:23 | 23.15423 | -109.71893 | 366 ft | 18 kts | 174° |
| 2026-05-01 14:23 | 23.15282 | -109.71877 | 365 ft | 21 kts | 174° |
| 2026-05-01 14:23 | 23.15133 | -109.71860 | 360 ft | 22 kts | 173° |
| 2026-05-01 14:24 | 23.14983 | -109.71843 | 359 ft | 22 kts | 174° |
| 2026-05-01 14:24 | 23.14832 | -109.71826 | 358 ft | 22 kts | 174° |
| 2026-05-01 14:24 | 23.14679 | -109.71808 | 350 ft | 22 kts | 174° |
| 2026-05-01 14:24 | 23.14523 | -109.71790 | 348 ft | 22 kts | 174° |
| 2026-05-01 14:25 | 23.14369 | -109.71772 | 344 ft | 22 kts | 174° |
| 2026-05-01 14:25 | 23.14213 | -109.71754 | 333 ft | 23 kts | 174° |
| 2026-05-01 14:25 | 23.14063 | -109.71737 | 332 ft | 21 kts | 174° |
| 2026-05-01 14:25 | 23.13949 | -109.71724 | 330 ft | 13 kts | 175° |
| 2026-05-01 14:26 | 23.13892 | -109.71764 | 329 ft | 10 kts | 258° |
| 2026-05-01 14:26 | 23.13877 | -109.71891 | 332 ft | 7 kts | 264° |
| 2026-05-01 14:26 | 23.13894 | -109.71925 | 328 ft | 4 kts | 343° |
| 2026-05-01 14:27 | 23.13916 | -109.71928 | 331 ft | 4 kts | 352° |
| 2026-05-01 14:27 | 23.14160 | -109.71957 | 336 ft | 75 kts | 354° |
| 2026-05-01 14:27 | 23.14922 | -109.72045 | 356 ft | 142 kts | 354° |
| 2026-05-01 14:28 | 23.17366 | -109.72333 | 1289 ft | 183 kts | 354° |
| 2026-05-01 14:28 | 23.18643 | -109.72481 | 2064 ft | 186 kts | 354° |
| 2026-05-01 14:28 | 23.19949 | -109.72629 | 2406 ft | 196 kts | 354° |
| 2026-05-01 14:28 | 23.21383 | -109.72796 | 2479 ft | 212 kts | 354° |
| 2026-05-01 14:29 | 23.22905 | -109.72866 | 2582 ft | 228 kts | 5° |
| 2026-05-01 14:29 | 23.24508 | -109.72366 | 2592 ft | 254 kts | 26° |
| 2026-05-01 14:30 | 23.27750 | -109.67682 | 4076 ft | 276 kts | 81° |
| 2026-05-01 14:30 | 23.27763 | -109.67600 | 4099 ft | 276 kts | 82° |
| 2026-05-01 14:30 | 23.27821 | -109.67018 | 4285 ft | 276 kts | 87° |
| 2026-05-01 14:31 | 23.27876 | -109.62766 | 5415 ft | 285 kts | 89° |
| 2026-05-01 14:31 | 23.27896 | -109.60590 | 5847 ft | 291 kts | 89° |
| 2026-05-01 14:31 | 23.27918 | -109.58381 | 5938 ft | 293 kts | 89° |
| 2026-05-01 14:31 | 23.27940 | -109.56165 | 5948 ft | 292 kts | 89° |
| 2026-05-01 14:32 | 23.27962 | -109.53956 | 5954 ft | 293 kts | 89° |
| 2026-05-01 14:32 | 23.27986 | -109.51747 | 5952 ft | 292 kts | 89° |
| 2026-05-01 14:32 | 23.28008 | -109.49537 | 5954 ft | 292 kts | 89° |
| 2026-05-01 14:32 | 23.28029 | -109.47327 | 5962 ft | 293 kts | 89° |
| 2026-05-01 14:33 | 23.28068 | -109.45095 | 6482 ft | 296 kts | 89° |
| 2026-05-01 14:33 | 23.28117 | -109.42843 | 7020 ft | 301 kts | 89° |
| 2026-05-01 14:33 | 23.28166 | -109.40546 | 7503 ft | 306 kts | 89° |
| 2026-05-01 14:33 | 23.28215 | -109.38218 | 8017 ft | 311 kts | 89° |
| 2026-05-01 14:34 | 23.28263 | -109.35849 | 8504 ft | 315 kts | 89° |
| 2026-05-01 14:34 | 23.28309 | -109.33447 | 8986 ft | 320 kts | 89° |
| 2026-05-01 14:34 | 23.28357 | -109.31006 | 9476 ft | 325 kts | 89° |
| 2026-05-01 14:34 | 23.28651 | -109.28556 | 9921 ft | 330 kts | 75° |
| 2026-05-01 14:35 | 23.29345 | -109.26137 | 10156 ft | 343 kts | 71° |
| 2026-05-01 14:35 | 23.30109 | -109.23612 | 10281 ft | 360 kts | 71° |
| 2026-05-01 14:35 | 23.30911 | -109.20968 | 10404 ft | 375 kts | 71° |
| 2026-05-01 14:35 | 23.31740 | -109.18218 | 10551 ft | 389 kts | 71° |
| 2026-05-01 14:36 | 23.32585 | -109.15395 | 10929 ft | 395 kts | 71° |
| 2026-05-01 14:36 | 23.33436 | -109.12536 | 11358 ft | 399 kts | 71° |
| 2026-05-01 14:36 | 23.34294 | -109.09651 | 11804 ft | 402 kts | 71° |
| 2026-05-01 14:36 | 23.35160 | -109.06742 | 12258 ft | 406 kts | 71° |
| 2026-05-01 14:37 | 23.36033 | -109.03810 | 12711 ft | 409 kts | 72° |
| 2026-05-01 14:37 | 23.36912 | -109.00852 | 13157 ft | 412 kts | 72° |
| 2026-05-01 14:37 | 23.37801 | -108.97871 | 13596 ft | 416 kts | 72° |
| 2026-05-01 14:37 | 23.38698 | -108.94865 | 13993 ft | 419 kts | 72° |
| 2026-05-01 14:38 | 23.39601 | -108.91835 | 14382 ft | 422 kts | 72° |
| 2026-05-01 14:38 | 23.40508 | -108.88784 | 14788 ft | 425 kts | 71° |
| 2026-05-01 14:38 | 23.41537 | -108.85767 | 15178 ft | 427 kts | 64° |
| 2026-05-01 14:38 | 23.42899 | -108.82890 | 15564 ft | 429 kts | 60° |
| 2026-05-01 14:39 | 23.44323 | -108.79974 | 15962 ft | 431 kts | 60° |
| 2026-05-01 14:39 | 23.45735 | -108.77081 | 16356 ft | 434 kts | 60° |
| 2026-05-01 14:39 | 23.47154 | -108.74170 | 16713 ft | 437 kts | 60° |
| 2026-05-01 14:39 | 23.48582 | -108.71230 | 17087 ft | 440 kts | 60° |
| 2026-05-01 14:40 | 23.50013 | -108.68277 | 17458 ft | 442 kts | 60° |
| 2026-05-01 14:40 | 23.51452 | -108.65303 | 17840 ft | 445 kts | 60° |
| 2026-05-01 14:40 | 23.52900 | -108.62309 | 18186 ft | 447 kts | 60° |
| 2026-05-01 14:40 | 23.54352 | -108.59305 | 18495 ft | 450 kts | 60° |
| 2026-05-01 14:41 | 23.55811 | -108.56279 | 18792 ft | 452 kts | 60° |
| 2026-05-01 14:41 | 23.57275 | -108.53235 | 19090 ft | 455 kts | 60° |
| 2026-05-01 14:41 | 23.58749 | -108.50173 | 19391 ft | 457 kts | 60° |
| 2026-05-01 14:41 | 23.60231 | -108.47099 | 19679 ft | 459 kts | 60° |
| 2026-05-01 14:42 | 23.61743 | -108.43969 | 19966 ft | 462 kts | 60° |
| 2026-05-01 14:42 | 23.63241 | -108.40867 | 20252 ft | 464 kts | 60° |
| 2026-05-01 14:42 | 23.64749 | -108.37741 | 20542 ft | 466 kts | 60° |
| 2026-05-01 14:42 | 23.66260 | -108.34605 | 20824 ft | 469 kts | 60° |
| 2026-05-01 14:43 | 23.67783 | -108.31442 | 21111 ft | 471 kts | 60° |
| 2026-05-01 14:43 | 23.69305 | -108.28277 | 21392 ft | 473 kts | 60° |
| 2026-05-01 14:43 | 23.70857 | -108.25045 | 21666 ft | 476 kts | 60° |
| 2026-05-01 14:43 | 23.72395 | -108.21839 | 21944 ft | 478 kts | 60° |
| 2026-05-01 14:44 | 23.73940 | -108.18619 | 22212 ft | 480 kts | 60° |
| 2026-05-01 14:44 | 23.76525 | -108.13231 | 22654 ft | 484 kts | 60° |
| 2026-05-01 14:44 | 23.78086 | -108.09968 | 22921 ft | 486 kts | 60° |
| 2026-05-01 14:45 | 23.79651 | -108.06693 | 23188 ft | 488 kts | 60° |
| 2026-05-01 14:45 | 23.82804 | -108.00087 | 23670 ft | 492 kts | 60° |
| 2026-05-01 14:45 | 23.84393 | -107.96757 | 23898 ft | 494 kts | 60° |
| 2026-05-01 14:46 | 23.85983 | -107.93429 | 24112 ft | 496 kts | 60° |
| 2026-05-01 14:46 | 23.89182 | -107.86724 | 24561 ft | 499 kts | 60° |
| 2026-05-01 14:46 | 23.90786 | -107.83352 | 24773 ft | 501 kts | 60° |
| 2026-05-01 14:47 | 23.92394 | -107.79968 | 24990 ft | 502 kts | 60° |
| 2026-05-01 14:47 | 23.94007 | -107.76574 | 25206 ft | 504 kts | 60° |
| 2026-05-01 14:47 | 23.95627 | -107.73168 | 25429 ft | 506 kts | 60° |
| 2026-05-01 14:48 | 23.98902 | -107.66277 | 25882 ft | 509 kts | 60° |
| 2026-05-01 14:48 | 24.00536 | -107.62835 | 26095 ft | 511 kts | 60° |
| 2026-05-01 14:48 | 24.03812 | -107.55913 | 26535 ft | 514 kts | 60° |
| 2026-05-01 14:49 | 24.07104 | -107.48940 | 26951 ft | 517 kts | 60° |
| 2026-05-01 14:49 | 24.10434 | -107.41873 | 27353 ft | 520 kts | 60° |
| 2026-05-01 14:50 | 24.13223 | -107.35956 | 27676 ft | 523 kts | 60° |
| 2026-05-01 14:50 | 24.17117 | -107.27696 | 28104 ft | 527 kts | 60° |
| 2026-05-01 14:51 | 24.18798 | -107.24122 | 28290 ft | 529 kts | 60° |
| 2026-05-01 14:51 | 24.22175 | -107.16939 | 28657 ft | 532 kts | 60° |
| 2026-05-01 14:52 | 24.25591 | -107.09665 | 29031 ft | 535 kts | 60° |
| 2026-05-01 14:52 | 24.27292 | -107.06034 | 29218 ft | 536 kts | 60° |
| 2026-05-01 14:52 | 24.30692 | -106.98757 | 29688 ft | 537 kts | 60° |
| 2026-05-01 14:53 | 24.32418 | -106.95063 | 29970 ft | 536 kts | 60° |
| 2026-05-01 14:53 | 24.34115 | -106.91430 | 30178 ft | 536 kts | 60° |
| 2026-05-01 14:53 | 24.35816 | -106.87787 | 30381 ft | 536 kts | 60° |
| 2026-05-01 14:53 | 24.37515 | -106.84151 | 30621 ft | 535 kts | 60° |
| 2026-05-01 14:54 | 24.39234 | -106.80470 | 30807 ft | 536 kts | 60° |
| 2026-05-01 14:54 | 24.40906 | -106.76878 | 31034 ft | 536 kts | 60° |
| 2026-05-01 14:54 | 24.42647 | -106.73136 | 31264 ft | 535 kts | 60° |
| 2026-05-01 14:54 | 24.44335 | -106.69500 | 31462 ft | 535 kts | 60° |
| 2026-05-01 14:55 | 24.46027 | -106.65855 | 31668 ft | 536 kts | 60° |
| 2026-05-01 14:55 | 24.47715 | -106.62215 | 31882 ft | 536 kts | 60° |
| 2026-05-01 14:55 | 24.49403 | -106.58567 | 32109 ft | 535 kts | 60° |
| 2026-05-01 14:55 | 24.51108 | -106.54877 | 32346 ft | 535 kts | 60° |
| 2026-05-01 14:56 | 24.52791 | -106.51243 | 32585 ft | 534 kts | 60° |
| 2026-05-01 14:56 | 24.54478 | -106.47602 | 32810 ft | 535 kts | 59° |
| 2026-05-01 14:56 | 24.56161 | -106.43969 | 32950 ft | 534 kts | 59° |
| 2026-05-01 14:57 | 24.59488 | -106.36750 | 32972 ft | 527 kts | 59° |
| 2026-05-01 14:57 | 24.64470 | -106.25940 | 32988 ft | 525 kts | 61° |
| 2026-05-01 14:58 | 24.67753 | -106.18795 | 33018 ft | 524 kts | 59° |
| 2026-05-01 14:58 | 24.71046 | -106.11622 | 33026 ft | 527 kts | 59° |
| 2026-05-01 14:59 | 24.74379 | -106.04373 | 33052 ft | 528 kts | 59° |
| 2026-05-01 14:59 | 24.77686 | -105.97167 | 33043 ft | 527 kts | 59° |
| 2026-05-01 15:00 | 24.82620 | -105.86326 | 33057 ft | 524 kts | 59° |
| 2026-05-01 15:01 | 24.85874 | -105.79167 | 33050 ft | 523 kts | 59° |
| 2026-05-01 15:01 | 24.89134 | -105.72020 | 33033 ft | 522 kts | 59° |
| 2026-05-01 15:02 | 24.92385 | -105.64880 | 33029 ft | 521 kts | 59° |
| 2026-05-01 15:02 | 24.95633 | -105.57743 | 33007 ft | 521 kts | 60° |
| 2026-05-01 15:03 | 24.98871 | -105.50604 | 32999 ft | 521 kts | 60° |
| 2026-05-01 15:03 | 25.02104 | -105.43455 | 32996 ft | 521 kts | 60° |
| 2026-05-01 15:04 | 25.05333 | -105.36294 | 33000 ft | 522 kts | 60° |
| 2026-05-01 15:04 | 25.08564 | -105.29127 | 32992 ft | 522 kts | 60° |
| 2026-05-01 15:05 | 25.11795 | -105.21965 | 32981 ft | 521 kts | 60° |
| 2026-05-01 15:05 | 25.15020 | -105.14796 | 32978 ft | 522 kts | 60° |
| 2026-05-01 15:06 | 25.18210 | -105.07668 | 32977 ft | 522 kts | 60° |
| 2026-05-01 15:06 | 25.21429 | -105.00476 | 32949 ft | 523 kts | 60° |
| 2026-05-01 15:07 | 25.24653 | -104.93267 | 32942 ft | 524 kts | 60° |
| 2026-05-01 15:07 | 25.27484 | -104.85840 | 32925 ft | 528 kts | 73° |
| 2026-05-01 15:08 | 25.29132 | -104.77936 | 32916 ft | 528 kts | 77° |
| 2026-05-01 15:08 | 25.30741 | -104.70004 | 32920 ft | 530 kts | 77° |
| 2026-05-01 15:09 | 25.32364 | -104.62049 | 32918 ft | 531 kts | 77° |
| 2026-05-01 15:09 | 25.33981 | -104.54084 | 32914 ft | 531 kts | 77° |
| 2026-05-01 15:10 | 25.35588 | -104.46114 | 32906 ft | 531 kts | 77° |
| 2026-05-01 15:10 | 25.37724 | -104.35504 | 32895 ft | 531 kts | 77° |
| 2026-05-01 15:11 | 25.40123 | -104.23552 | 32910 ft | 531 kts | 77° |
| 2026-05-01 15:12 | 25.41715 | -104.15577 | 32908 ft | 531 kts | 77° |
| 2026-05-01 15:12 | 25.44093 | -104.03595 | 32893 ft | 532 kts | 77° |
| 2026-05-01 15:14 | 25.48046 | -103.83618 | 32896 ft | 532 kts | 77° |
| 2026-05-01 15:14 | 25.50409 | -103.71615 | 32907 ft | 533 kts | 77° |
| 2026-05-01 15:15 | 25.53548 | -103.55559 | 32974 ft | 534 kts | 77° |
| 2026-05-01 15:16 | 25.57710 | -103.39862 | 32993 ft | 530 kts | 57° |
| 2026-05-01 15:17 | 25.61934 | -103.33284 | 32992 ft | 523 kts | 46° |
| 2026-05-01 15:18 | 25.68831 | -103.23887 | 32944 ft | 525 kts | 46° |
| 2026-05-01 15:19 | 25.78037 | -103.11248 | 32859 ft | 528 kts | 46° |
| 2026-05-01 15:19 | 25.84970 | -103.01727 | 32860 ft | 529 kts | 46° |
| 2026-05-01 15:20 | 25.91915 | -102.92170 | 32864 ft | 530 kts | 46° |
| 2026-05-01 15:21 | 25.96552 | -102.85787 | 32881 ft | 531 kts | 46° |
| 2026-05-01 15:21 | 26.01182 | -102.79391 | 32893 ft | 531 kts | 46° |
| 2026-05-01 15:22 | 26.08115 | -102.69791 | 32877 ft | 531 kts | 46° |
| 2026-05-01 15:22 | 26.12748 | -102.63377 | 32874 ft | 532 kts | 46° |
| 2026-05-01 15:23 | 26.17409 | -102.56924 | 32882 ft | 531 kts | 46° |
| 2026-05-01 15:23 | 26.22031 | -102.50504 | 32889 ft | 531 kts | 46° |
| 2026-05-01 15:24 | 26.26681 | -102.44033 | 32895 ft | 531 kts | 46° |
| 2026-05-01 15:24 | 26.31283 | -102.37601 | 32905 ft | 531 kts | 46° |
| 2026-05-01 15:25 | 26.35892 | -102.31170 | 32920 ft | 531 kts | 46° |
| 2026-05-01 15:25 | 26.40513 | -102.24729 | 32907 ft | 532 kts | 47° |
| 2026-05-01 15:26 | 26.45122 | -102.18276 | 32907 ft | 532 kts | 46° |
| 2026-05-01 15:26 | 26.49733 | -102.11813 | 32904 ft | 532 kts | 46° |
| 2026-05-01 15:27 | 26.54340 | -102.05346 | 32904 ft | 532 kts | 46° |
| 2026-05-01 15:28 | 26.61250 | -101.95648 | 32914 ft | 532 kts | 46° |
| 2026-05-01 15:28 | 26.65850 | -101.89179 | 32916 ft | 532 kts | 46° |
| 2026-05-01 15:29 | 26.72744 | -101.79435 | 32932 ft | 533 kts | 47° |
| 2026-05-01 15:30 | 26.81932 | -101.66450 | 32954 ft | 532 kts | 46° |
| 2026-05-01 15:31 | 26.95235 | -101.46579 | 33000 ft | 537 kts | 61° |
| 2026-05-01 15:32 | 26.97741 | -101.38673 | 32995 ft | 540 kts | 73° |
| 2026-05-01 15:32 | 26.99834 | -101.30585 | 32972 ft | 540 kts | 72° |
| 2026-05-01 15:34 | 27.06150 | -101.06354 | 32929 ft | 538 kts | 73° |